Time;durP1;ratioP1;P1;durP2;ratioP2;P2;SDS_P1;SDS_P2;PMS_P1;PMS_P2;Temp;Humidity;BMP_temperature;BMP_pressure;BME280_temperature;BME280_humidity;BME280_pressure;Samples;Min_cycle;Max_cycle;Signal;HPM_P1;HPM_P2
2022/03/22 00:00:06;;;;;;;0.68;0.68;;;;;;;-0.16;65.12;100949.03;4937913;29;20115;-86
2022/03/22 00:02:38;;;;;;;0.80;0.80;;;;;;;-0.24;65.40;100941.72;4913177;29;20138;-84
2022/03/22 00:05:05;;;;;;;0.60;0.60;;;;;;;-0.33;65.52;100934.50;4944090;29;20086;-84
2022/03/22 00:07:33;;;;;;;0.80;0.80;;;;;;;-0.35;65.47;100932.00;4922473;29;20051;-83
2022/03/22 00:10:00;;;;;;;0.80;0.80;;;;;;;-0.34;65.38;100940.78;4941317;29;20059;-85
2022/03/22 00:12:28;;;;;;;0.68;0.68;;;;;;;-0.32;65.14;100938.84;4945193;29;20132;-86
2022/03/22 00:14:57;;;;;;;0.70;0.70;;;;;;;-0.33;65.04;100943.31;4946914;29;20051;-84
2022/03/22 00:17:44;;;;;;;0.63;0.63;;;;;;;-0.36;65.39;100932.94;4941769;29;20051;-84
2022/03/22 00:20:12;;;;;;;0.50;0.50;;;;;;;-0.35;65.21;100939.13;4938716;29;20067;-84
2022/03/22 00:22:43;;;;;;;0.70;0.70;;;;;;;-0.39;65.51;100932.38;4903724;29;20059;-85
2022/03/22 00:25:12;;;;;;;0.70;0.70;;;;;;;-0.42;65.40;100944.06;4919191;29;20079;-85
2022/03/22 00:27:55;;;;;;;0.70;0.70;;;;;;;-0.31;65.08;100941.34;4919447;29;20155;-85
2022/03/22 00:30:33;;;;;;;0.70;0.70;;;;;;;-0.32;64.75;100941.50;4947749;29;20056;-85
2022/03/22 00:33:04;;;;;;;0.60;0.60;;;;;;;-0.22;64.14;100940.59;4918607;29;20082;-85
2022/03/22 00:35:41;;;;;;;0.57;0.57;;;;;;;-0.18;63.78;100925.25;4902879;29;20099;-84
2022/03/22 00:38:16;;;;;;;0.68;0.68;;;;;;;-0.15;63.27;100935.66;4935161;29;20047;-85
2022/03/22 00:40:47;;;;;;;0.60;0.60;;;;;;;-0.21;62.40;100933.47;4935871;29;20066;-85
2022/03/22 00:43:17;;;;;;;0.70;0.70;;;;;;;-0.21;61.91;100936.13;4936245;29;20079;-84
2022/03/22 00:45:44;;;;;;;0.80;0.80;;;;;;;-0.24;61.70;100928.44;4936598;29;20099;-84
2022/03/22 00:48:14;;;;;;;0.68;0.68;;;;;;;-0.24;61.36;100926.63;4935734;29;20138;-85
2022/03/22 00:50:44;;;;;;;0.70;0.70;;;;;;;-0.29;61.11;100922.66;4917791;29;20106;-85
2022/03/22 00:53:13;;;;;;;0.50;0.50;;;;;;;-0.22;60.89;100905.28;4918154;29;20101;-85
2022/03/22 00:55:40;;;;;;;0.60;0.60;;;;;;;-0.13;60.56;100912.44;4918701;29;20055;-85
2022/03/22 00:58:08;;;;;;;0.52;0.52;;;;;;;-0.14;60.45;100913.44;4934829;29;20392;-83
2022/03/22 01:00:35;;;;;;;0.60;0.60;;;;;;;-0.16;60.29;100912.72;4935039;29;20099;-84
2022/03/22 01:03:05;;;;;;;0.70;0.70;;;;;;;-0.22;60.68;100907.94;4935004;29;20052;-84
2022/03/22 01:05:32;;;;;;;0.70;0.70;;;;;;;-0.32;60.70;100910.50;4935072;29;20107;-84
2022/03/22 01:08:03;;;;;;;0.57;0.57;;;;;;;-0.36;60.97;100908.22;4934919;29;20047;-83
2022/03/22 01:10:31;;;;;;;0.70;0.70;;;;;;;-0.35;60.96;100912.59;4918055;29;20089;-85
2022/03/22 01:12:59;;;;;;;0.60;0.60;;;;;;;-0.38;61.13;100910.16;4935335;29;20055;-83
2022/03/22 01:15:33;;;;;;;0.70;0.70;;;;;;;-0.35;61.22;100901.97;4936153;29;20047;-85
2022/03/22 01:18:06;;;;;;;0.60;0.60;;;;;;;-0.36;61.04;100911.72;4936200;29;20059;-85
2022/03/22 01:20:35;;;;;;;0.60;0.60;;;;;;;-0.42;61.39;100911.41;4936072;29;20047;-84
2022/03/22 01:23:04;;;;;;;0.70;0.70;;;;;;;-0.48;61.70;100908.28;4936013;29;20047;-85
2022/03/22 01:25:34;;;;;;;0.70;0.70;;;;;;;-0.49;61.71;100908.41;4957229;29;20042;-85
2022/03/22 01:28:07;;;;;;;0.65;0.65;;;;;;;-0.56;62.00;100908.06;4957927;28;20032;-85
2022/03/22 01:30:35;;;;;;;0.70;0.70;;;;;;;-0.60;62.01;100909.28;4958396;28;20088;-84
2022/03/22 01:33:03;;;;;;;0.80;0.80;;;;;;;-0.59;61.92;100913.63;4956297;28;20059;-86
2022/03/22 01:35:31;;;;;;;0.60;0.60;;;;;;;-0.61;61.99;100904.94;4943583;29;20522;-86
2022/03/22 01:37:59;;;;;;;0.57;0.57;;;;;;;-0.58;61.82;100909.16;4934338;29;20044;-84
2022/03/22 01:40:28;;;;;;;0.75;0.75;;;;;;;-0.51;62.90;100912.97;4934355;29;20055;-85
2022/03/22 01:42:59;;;;;;;0.60;0.60;;;;;;;-0.37;62.17;100910.03;4894663;29;20060;-84
2022/03/22 01:45:26;;;;;;;0.60;0.60;;;;;;;-0.41;62.02;100913.06;4881784;29;20087;-85
2022/03/22 01:48:00;;;;;;;0.57;0.57;;;;;;;-0.56;62.38;100907.22;4895755;29;20057;-83
2022/03/22 01:50:29;;;;;;;0.70;0.70;;;;;;;-0.73;62.80;100898.00;4895654;29;20131;-86
2022/03/22 01:52:57;;;;;;;0.60;0.60;;;;;;;-0.97;62.91;100896.34;4894292;29;20108;-85
2022/03/22 01:55:27;;;;;;;0.80;0.80;;;;;;;-0.97;63.49;100904.31;4894679;29;20160;-87
2022/03/22 01:57:56;;;;;;;0.73;0.73;;;;;;;-1.10;64.07;100895.66;4894414;29;20586;-85
2022/03/22 02:00:26;;;;;;;0.55;0.55;;;;;;;-1.15;64.46;100892.53;4894832;29;20101;-85
2022/03/22 02:05:55;;;;;;;0.70;0.70;;;;;;;-1.19;64.17;100904.34;4897905;29;20076;-84
2022/03/22 02:08:28;;;;;;;0.63;0.63;;;;;;;-1.25;64.26;100894.25;4897965;29;20589;-85
2022/03/22 02:10:59;;;;;;;0.68;0.68;;;;;;;-1.23;64.34;100894.97;4897616;29;20120;-85
2022/03/22 02:13:29;;;;;;;0.60;0.60;;;;;;;-1.21;64.21;100896.53;4897976;29;20096;-85
2022/03/22 02:15:58;;;;;;;0.60;0.60;;;;;;;-1.25;64.39;100896.91;4882644;29;20600;-85
2022/03/22 02:18:25;;;;;;;0.50;0.50;;;;;;;-1.37;64.44;100883.69;4889216;29;20049;-83
2022/03/22 02:20:54;;;;;;;0.60;0.60;;;;;;;-1.32;64.42;100891.22;4926127;29;20053;-86
2022/03/22 02:23:46;;;;;;;0.63;0.63;;;;;;;-1.31;64.47;100895.59;4921520;29;20052;-85
2022/03/22 02:26:13;;;;;;;0.60;0.60;;;;;;;-1.39;64.56;100890.91;4905040;29;20454;-84
2022/03/22 02:28:42;;;;;;;0.55;0.55;;;;;;;-1.49;64.91;100883.78;4920879;29;20052;-86
2022/03/22 02:31:11;;;;;;;0.70;0.70;;;;;;;-1.47;64.98;100880.03;4937153;29;20052;-85
2022/03/22 02:33:42;;;;;;;0.80;0.80;;;;;;;-1.46;64.98;100887.03;4937782;29;20055;-85
2022/03/22 02:36:09;;;;;;;0.45;0.45;;;;;;;-1.45;64.99;100882.56;4937875;29;20083;-85
2022/03/22 02:38:36;;;;;;;0.65;0.65;;;;;;;-1.40;65.08;100878.59;4937679;29;20056;-85
2022/03/22 02:41:05;;;;;;;0.68;0.68;;;;;;;-1.32;64.95;100883.28;4936954;29;20075;-85
2022/03/22 02:43:33;;;;;;;0.57;0.57;;;;;;;-1.32;64.79;100880.63;4937258;29;20044;-86
2022/03/22 02:46:00;;;;;;;0.40;0.40;;;;;;;-1.38;64.82;100876.66;4937230;29;20059;-85
2022/03/22 02:48:27;;;;;;;0.50;0.50;;;;;;;-1.54;65.21;100876.22;4937722;29;20514;-85
2022/03/22 02:50:54;;;;;;;0.50;0.50;;;;;;;-1.49;65.62;100879.34;4937381;29;20147;-86
2022/03/22 02:53:22;;;;;;;0.80;0.80;;;;;;;-1.50;65.41;100867.03;4937403;29;20052;-84
2022/03/22 02:55:49;;;;;;;0.40;0.40;;;;;;;-1.56;65.77;100875.47;4937531;29;20057;-85
2022/03/22 02:58:16;;;;;;;0.57;0.57;;;;;;;-1.62;65.74;100858.28;4937797;29;20510;-85
2022/03/22 03:00:43;;;;;;;0.50;0.50;;;;;;;-1.59;65.88;100865.97;4942146;29;20074;-86
2022/03/22 03:03:10;;;;;;;0.50;0.50;;;;;;;-1.65;65.96;100860.31;4940952;29;20526;-85
2022/03/22 03:05:38;;;;;;;0.60;0.60;;;;;;;-1.62;65.96;100878.59;4923656;29;20066;-84
2022/03/22 03:08:11;;;;;;;0.40;0.40;;;;;;;-1.72;66.27;100873.19;4938417;29;20134;-85
2022/03/22 03:10:39;;;;;;;0.57;0.57;;;;;;;-1.84;66.54;100876.78;4937381;29;20083;-85
2022/03/22 03:13:07;;;;;;;0.50;0.50;;;;;;;-1.91;66.80;100878.22;4903759;29;20052;-85
2022/03/22 03:15:34;;;;;;;0.60;0.60;;;;;;;-1.98;67.03;100872.56;4920988;29;20130;-86
2022/03/22 03:18:02;;;;;;;0.70;0.70;;;;;;;-1.97;66.99;100874.25;4904348;29;20067;-86
2022/03/22 03:20:29;;;;;;;0.60;0.60;;;;;;;-2.00;67.07;100864.75;4920575;29;20455;-86
2022/03/22 03:22:56;;;;;;;0.70;0.70;;;;;;;-1.94;67.06;100867.88;4936649;29;20056;-85
2022/03/22 03:25:24;;;;;;;0.70;0.70;;;;;;;-1.93;66.75;100856.31;4939364;29;20056;-85
2022/03/22 03:27:54;;;;;;;0.52;0.52;;;;;;;-1.80;66.49;100857.91;4937695;29;20482;-85
2022/03/22 03:30:21;;;;;;;0.50;0.50;;;;;;;-1.79;66.24;100856.94;4937943;29;20044;-85
2022/03/22 03:32:48;;;;;;;0.50;0.50;;;;;;;-1.75;66.13;100862.81;4923046;29;20247;-85
2022/03/22 03:35:16;;;;;;;0.50;0.50;;;;;;;-1.82;66.17;100854.53;4927004;29;20054;-87
2022/03/22 03:37:44;;;;;;;0.52;0.52;;;;;;;-1.88;66.38;100862.94;4937153;29;20070;-85
2022/03/22 03:40:12;;;;;;;0.60;0.60;;;;;;;-1.86;66.54;100860.19;4937439;29;20122;-86
2022/03/22 03:42:45;;;;;;;0.60;0.60;;;;;;;-2.00;66.39;100848.00;4937760;29;20050;-85
2022/03/22 03:47:59;;;;;;;0.50;0.50;;;;;;;-2.01;66.73;100862.22;4935932;29;20060;-85
2022/03/22 03:50:27;;;;;;;0.55;0.55;;;;;;;-2.01;66.82;100865.69;4936691;29;20142;-85
2022/03/22 03:52:54;;;;;;;0.60;0.60;;;;;;;-1.98;66.73;100851.38;4936404;29;20050;-86
2022/03/22 03:55:21;;;;;;;0.60;0.60;;;;;;;-1.94;66.88;100852.84;4937783;29;20090;-86
2022/03/22 03:57:49;;;;;;;0.60;0.60;;;;;;;-1.89;66.59;100849.84;4905095;29;20074;-85
2022/03/22 04:00:17;;;;;;;0.52;0.52;;;;;;;-1.89;66.73;100857.78;4919546;29;20048;-86
2022/03/22 04:02:44;;;;;;;0.50;0.50;;;;;;;-1.96;66.84;100847.66;4935995;29;20047;-87
2022/03/22 04:05:17;;;;;;;0.63;0.63;;;;;;;-1.88;66.95;100848.88;4942955;29;20052;-85
2022/03/22 04:07:45;;;;;;;0.50;0.50;;;;;;;-1.87;66.45;100848.75;4926730;29;20052;-85
2022/03/22 04:10:13;;;;;;;0.50;0.50;;;;;;;-1.87;66.63;100847.94;4945833;29;20083;-85
2022/03/22 04:12:44;;;;;;;0.43;0.43;;;;;;;-1.86;66.66;100854.91;4934358;29;20079;-86
2022/03/22 04:15:11;;;;;;;0.70;0.70;;;;;;;-1.86;66.39;100849.59;4956084;29;20056;-86
2022/03/22 04:17:39;;;;;;;0.50;0.50;;;;;;;-1.85;66.49;100846.84;4953673;29;20058;-85
2022/03/22 04:20:07;;;;;;;0.40;0.40;;;;;;;-1.85;66.54;100838.91;4955568;29;20036;-85
2022/03/22 04:22:35;;;;;;;0.40;0.40;;;;;;;-1.80;66.40;100839.38;4948703;29;20055;-85
2022/03/22 04:25:04;;;;;;;0.50;0.50;;;;;;;-1.71;66.26;100848.41;4937806;29;20107;-85
2022/03/22 04:33:05;;;;;;;0.52;0.52;;;;;;;-1.58;66.13;100833.22;4939831;29;20512;-85
2022/03/22 04:35:37;;;;;;;0.50;0.50;;;;;;;-1.58;65.84;100832.38;4940393;29;20395;-84
2022/03/22 04:38:04;;;;;;;0.70;0.70;;;;;;;-1.46;65.61;100835.88;4906111;29;20472;-86
2022/03/22 04:40:31;;;;;;;0.70;0.70;;;;;;;-1.18;64.85;100845.09;4939687;29;20059;-86
2022/03/22 04:42:59;;;;;;;0.50;0.50;;;;;;;-1.07;64.35;100847.72;4921380;29;20050;-86
2022/03/22 04:45:26;;;;;;;0.50;0.50;;;;;;;-1.08;64.29;100842.56;4939014;29;20465;-87
2022/03/22 04:47:54;;;;;;;0.50;0.50;;;;;;;-0.84;63.64;100847.66;4904882;29;20059;-85
2022/03/22 04:50:21;;;;;;;0.40;0.40;;;;;;;-0.73;63.08;100844.97;4938199;29;20147;-86
2022/03/22 04:58:37;;;;;;;0.60;0.60;;;;;;;-0.19;60.95;100840.47;4927136;29;20448;-86
2022/03/22 05:01:07;;;;;;;0.68;0.68;;;;;;;0.01;60.30;100846.75;4921079;29;20515;-87
2022/03/22 05:03:38;;;;;;;0.50;0.50;;;;;;;0.04;59.80;100833.22;4918418;29;20048;-86
2022/03/22 05:08:50;;;;;;;0.63;0.63;;;;;;;0.37;58.95;100846.22;4933065;29;20095;-86
2022/03/22 05:11:21;;;;;;;0.43;0.43;;;;;;;0.50;58.57;100850.47;4933465;29;20051;-87
2022/03/22 05:13:49;;;;;;;0.50;0.50;;;;;;;0.61;58.21;100848.56;4935617;29;20051;-87
2022/03/22 05:16:16;;;;;;;0.55;0.55;;;;;;;0.68;58.19;100848.84;4917798;29;20480;-86
2022/03/22 05:18:43;;;;;;;0.68;0.68;;;;;;;0.63;59.07;100849.28;4940559;29;20054;-87
2022/03/22 05:21:10;;;;;;;0.70;0.70;;;;;;;0.59;58.97;100837.22;4945267;29;20099;-85
2022/03/22 05:23:38;;;;;;;0.63;0.63;;;;;;;0.61;59.05;100839.75;4923248;29;20058;-85
2022/03/22 05:26:05;;;;;;;0.70;0.70;;;;;;;0.70;59.26;100849.56;4937485;29;20107;-87
2022/03/22 05:28:33;;;;;;;0.60;0.60;;;;;;;0.79;58.69;100851.41;4904098;29;20056;-84
2022/03/22 05:31:00;;;;;;;0.70;0.70;;;;;;;0.86;58.46;100841.91;4921999;29;20538;-86
2022/03/22 05:33:27;;;;;;;0.70;0.70;;;;;;;0.97;58.16;100845.44;4924383;29;20080;-83
2022/03/22 05:35:54;;;;;;;0.70;0.70;;;;;;;1.05;57.88;100842.91;4574980;29;10000284;-85
2022/03/22 05:38:25;;;;;;;0.90;0.90;;;;;;;1.18;57.65;100835.50;4930305;29;20062;-86
2022/03/22 05:40:53;;;;;;;0.90;0.90;;;;;;;1.27;57.50;100837.34;4914543;29;20507;-86
2022/03/22 05:43:21;;;;;;;0.82;0.82;;;;;;;1.42;57.07;100848.41;4899390;29;20048;-85
2022/03/22 05:45:48;;;;;;;0.70;0.70;;;;;;;1.54;56.89;100841.09;4924121;29;20072;-86
2022/03/22 05:48:16;;;;;;;0.73;0.73;;;;;;;1.63;56.16;100837.59;4908579;29;20082;-86
2022/03/22 05:50:44;;;;;;;0.70;0.70;;;;;;;1.71;55.51;100836.88;4927155;29;20079;-87
2022/03/22 05:53:12;;;;;;;0.80;0.80;;;;;;;1.93;55.01;100841.06;4908435;29;20079;-86
2022/03/22 05:55:40;;;;;;;0.73;0.73;;;;;;;2.06;54.55;100838.91;4924699;29;20115;-85
2022/03/22 05:58:08;;;;;;;0.73;0.73;;;;;;;2.17;54.37;100836.06;4904484;29;20079;-86
2022/03/22 06:00:36;;;;;;;0.77;0.77;;;;;;;2.26;54.05;100829.03;4930524;29;20083;-84
2022/03/22 06:03:03;;;;;;;0.70;0.70;;;;;;;2.39;53.91;100829.53;4923644;29;20056;-85
2022/03/22 06:05:32;;;;;;;0.70;0.70;;;;;;;2.60;53.45;100834.63;4916988;29;20115;-86
2022/03/22 06:08:00;;;;;;;0.70;0.70;;;;;;;2.77;53.04;100832.16;4918266;29;20084;-87
2022/03/22 06:10:29;;;;;;;0.70;0.70;;;;;;;2.84;52.68;100830.59;4883380;29;20112;-87
2022/03/22 06:12:57;;;;;;;0.70;0.70;;;;;;;2.90;52.95;100811.31;4914904;29;20051;-86
2022/03/22 06:15:29;;;;;;;0.80;0.80;;;;;;;3.01;52.88;100808.44;4899781;29;20051;-87
2022/03/22 06:18:04;;;;;;;0.68;0.68;;;;;;;3.23;52.65;100825.81;4901844;29;20507;-86
2022/03/22 06:20:33;;;;;;;0.70;0.70;;;;;;;3.39;52.29;100832.28;4911914;29;20032;-88
2022/03/22 06:23:06;;;;;;;0.77;0.77;;;;;;;3.44;51.68;100812.19;4912976;29;20051;-88
2022/03/22 06:25:34;;;;;;;0.80;0.80;;;;;;;3.56;51.56;100806.59;4898255;29;20143;-89
2022/03/22 06:28:04;;;;;;;0.70;0.70;;;;;;;3.73;51.11;100820.91;4906552;29;20071;-87
2022/03/22 06:30:34;;;;;;;0.77;0.77;;;;;;;3.89;51.04;100823.69;4928708;29;20052;-88
2022/03/22 06:33:10;;;;;;;0.70;0.70;;;;;;;4.06;50.49;100816.63;4915614;29;20056;-86
2022/03/22 06:35:42;;;;;;;0.60;0.60;;;;;;;4.18;49.61;100815.34;4947228;29;20629;-87
2022/03/22 06:38:14;;;;;;;0.70;0.70;;;;;;;4.32;48.98;100812.06;4951542;29;20075;-86
2022/03/22 06:40:42;;;;;;;0.60;0.60;;;;;;;4.46;48.43;100813.31;4944585;29;20136;-85
2022/03/22 06:43:11;;;;;;;0.70;0.70;;;;;;;4.58;48.34;100813.84;4927672;29;20075;-89
2022/03/22 06:45:40;;;;;;;0.70;0.70;;;;;;;4.72;47.63;100809.72;4932146;29;20056;-85
2022/03/22 06:48:08;;;;;;;0.70;0.70;;;;;;;4.84;47.45;100805.75;4930853;29;20484;-84
2022/03/22 06:50:47;;;;;;;0.70;0.70;;;;;;;4.97;46.89;100810.63;4916875;29;20554;-86
2022/03/22 06:53:15;;;;;;;0.60;0.60;;;;;;;5.16;46.69;100810.31;4917427;29;20054;-83
2022/03/22 06:55:43;;;;;;;0.70;0.70;;;;;;;5.24;46.65;100803.31;4901043;29;20055;-84
2022/03/22 06:58:14;;;;;;;0.70;0.70;;;;;;;5.39;46.26;100805.19;4929185;29;20055;-85
2022/03/22 07:00:42;;;;;;;0.75;0.75;;;;;;;5.48;46.25;100794.47;4936245;29;20072;-84
2022/03/22 07:03:09;;;;;;;0.65;0.65;;;;;;;5.60;46.08;100801.16;4934736;29;20089;-84
2022/03/22 07:05:36;;;;;;;0.60;0.60;;;;;;;5.67;45.57;100791.41;4909073;29;20044;-86
2022/03/22 07:08:04;;;;;;;0.60;0.60;;;;;;;5.75;45.34;100785.25;4922227;29;20050;-89
2022/03/22 07:10:33;;;;;;;0.60;0.60;;;;;;;5.86;45.46;100798.28;4932787;29;20902;-88
2022/03/22 07:13:06;;;;;;;0.60;0.60;;;;;;;6.01;45.15;100791.25;4929887;29;20059;-86
2022/03/22 07:15:36;;;;;;;0.70;0.70;;;;;;;6.07;45.11;100792.41;4907517;29;20063;-88
2022/03/22 07:18:05;;;;;;;0.65;0.65;;;;;;;6.14;44.86;100784.50;4933464;29;20098;-87
2022/03/22 07:20:33;;;;;;;0.65;0.65;;;;;;;6.29;44.41;100782.78;4939408;29;20056;-88
2022/03/22 07:23:03;;;;;;;0.70;0.70;;;;;;;6.43;44.21;100775.84;4913319;29;20070;-88
2022/03/22 07:25:33;;;;;;;0.65;0.65;;;;;;;6.61;44.00;100778.28;4935909;29;20122;-88
2022/03/22 07:28:01;;;;;;;0.73;0.73;;;;;;;6.75;43.42;100772.19;4916830;29;20147;-86
2022/03/22 07:30:30;;;;;;;0.70;0.70;;;;;;;6.90;42.60;100772.25;4902863;29;20060;-87
2022/03/22 07:32:57;;;;;;;0.80;0.80;;;;;;;7.05;41.43;100769.66;4937890;29;20055;-90
2022/03/22 07:35:25;;;;;;;0.80;0.80;;;;;;;7.20;40.02;100759.81;4909608;29;20066;-85
2022/03/22 07:37:58;;;;;;;0.75;0.75;;;;;;;7.38;39.01;100768.38;4902331;29;20869;-86
2022/03/22 07:40:26;;;;;;;0.70;0.70;;;;;;;7.50;37.60;100766.09;4924779;29;20056;-85
2022/03/22 07:42:53;;;;;;;0.73;0.73;;;;;;;7.67;37.44;100761.44;4924000;29;20047;-86
2022/03/22 07:45:20;;;;;;;0.70;0.70;;;;;;;7.80;36.88;100761.63;4934766;29;20403;-90
2022/03/22 07:47:48;;;;;;;0.80;0.80;;;;;;;7.94;36.38;100764.50;4917946;29;20123;-85
2022/03/22 07:53:21;;;;;;;0.70;0.70;;;;;;;8.18;35.62;100760.72;4930898;29;20059;-86
2022/03/22 07:55:51;;;;;;;;;;;;;;;8.33;35.03;100752.63;4936948;29;20056;-86
2022/03/22 07:58:18;;;;;;;0.70;0.70;;;;;;;8.49;33.94;100757.00;4916494;29;19969;-85
2022/03/22 08:00:46;;;;;;;0.70;0.70;;;;;;;8.75;33.58;100751.94;4937203;29;20051;-85
2022/03/22 08:03:15;;;;;;;0.80;0.80;;;;;;;8.97;32.46;100750.09;4938599;29;20680;-88
2022/03/22 08:05:47;;;;;;;0.70;0.70;;;;;;;9.19;31.91;100761.72;4871604;29;20057;-86
2022/03/22 08:08:16;;;;;;;0.70;0.70;;;;;;;9.32;30.79;100753.75;4894593;29;20583;-85
2022/03/22 08:10:59;;;;;;;0.70;0.70;;;;;;;9.69;30.66;100756.31;4900222;29;20049;-87
2022/03/22 08:13:29;;;;;;;0.65;0.65;;;;;;;9.97;30.27;100756.31;4899703;29;20052;-87
2022/03/22 08:15:56;;;;;;;0.70;0.70;;;;;;;10.38;29.42;100759.09;4887472;29;20107;-87
2022/03/22 08:18:54;;;;;;;0.70;0.70;;;;;;;10.85;28.90;100754.66;4877487;29;20080;-90
2022/03/22 08:21:25;;;;;;;0.70;0.70;;;;;;;11.28;28.12;100751.63;4870749;29;20070;-89
2022/03/22 08:23:52;;;;;;;0.70;0.70;;;;;;;11.63;28.09;100746.03;4795449;29;20124;-83
2022/03/22 08:26:36;;;;;;;0.70;0.70;;;;;;;12.12;27.99;100738.47;4848007;29;20144;-90
2022/03/22 08:32:27;;;;;;;0.70;0.70;;;;;;;12.56;26.94;100712.50;1314084;27;20036;-93
2022/03/22 08:34:55;;;;;;;0.70;0.70;;;;;;;12.60;26.54;100715.59;4945483;29;20051;-89
2022/03/22 08:37:48;;;;;;;0.70;0.70;;;;;;;12.92;26.28;100717.31;4918586;29;20043;-87
2022/03/22 08:40:16;;;;;;;0.70;0.70;;;;;;;12.74;26.40;100715.31;4942627;29;20056;-89
2022/03/22 08:42:44;;;;;;;0.70;0.70;;;;;;;12.43;26.76;100724.25;4946014;29;20119;-88
2022/03/22 08:45:16;;;;;;;0.70;0.70;;;;;;;12.38;27.54;100721.31;4922006;29;20066;-90
2022/03/22 08:47:48;;;;;;;0.70;0.70;;;;;;;12.59;27.40;100706.66;4920822;29;20047;-90
2022/03/22 08:50:18;;;;;;;0.70;0.70;;;;;;;12.60;26.96;100702.06;4950018;29;20462;-86
2022/03/22 08:52:50;;;;;;;0.70;0.70;;;;;;;12.87;26.95;100698.16;4948639;29;20068;-86
2022/03/22 08:55:18;;;;;;;0.80;0.80;;;;;;;13.19;26.30;100687.28;4942112;29;20058;-86
2022/03/22 08:57:48;;;;;;;0.70;0.70;;;;;;;13.21;26.06;100690.59;4934341;29;20043;-88
2022/03/22 09:00:19;;;;;;;0.70;0.70;;;;;;;13.11;26.44;100687.56;4894621;29;20119;-90
2022/03/22 09:02:50;;;;;;;0.70;0.70;;;;;;;13.27;26.19;100673.50;4890077;29;20437;-90
2022/03/22 09:08:09;;;;;;;0.70;0.70;;;;;;;13.65;25.73;100667.09;4908771;29;20048;-90
2022/03/22 09:10:37;;;;;;;0.70;0.70;;;;;;;13.75;25.64;100655.72;4924816;29;20071;-90
2022/03/22 09:13:07;;;;;;;0.70;0.70;;;;;;;13.84;25.81;100665.22;4899327;29;20036;-90
2022/03/22 09:15:44;;;;;;;0.70;0.70;;;;;;;14.13;25.40;100674.50;4868091;29;20100;-88
2022/03/22 09:18:14;;;;;;;0.70;0.70;;;;;;;14.44;25.43;100657.19;4866529;29;20160;-89
2022/03/22 09:20:46;;;;;;;0.70;0.70;;;;;;;14.82;24.68;100652.50;4868234;29;20068;-91
2022/03/22 09:23:40;;;;;;;0.70;0.70;;;;;;;14.63;24.60;100652.53;4882525;29;20039;-92
2022/03/22 09:26:08;;;;;;;0.70;0.70;;;;;;;14.84;24.39;100647.66;4875957;29;20151;-88
2022/03/22 09:28:36;;;;;;;0.70;0.70;;;;;;;15.00;23.68;100646.97;4878367;29;20360;-89
2022/03/22 09:31:08;;;;;;;0.70;0.70;;;;;;;15.05;23.40;100614.47;4841243;29;20053;-92
2022/03/22 09:33:42;;;;;;;0.70;0.70;;;;;;;15.35;23.44;100655.19;4862603;29;20101;-90
2022/03/22 09:36:10;;;;;;;0.80;0.80;;;;;;;15.53;23.37;100639.81;4850311;29;20560;-92
2022/03/22 09:38:37;;;;;;;0.80;0.80;;;;;;;15.71;22.88;100633.44;4849268;29;20442;-92
2022/03/22 09:41:06;;;;;;;0.73;0.73;;;;;;;15.93;23.02;100639.09;4845901;29;22213;-91
2022/03/22 09:43:35;;;;;;;0.80;0.80;;;;;;;16.21;22.48;100632.84;4839534;29;20053;-88
2022/03/22 09:46:06;;;;;;;0.70;0.70;;;;;;;16.35;22.26;100634.19;4824810;29;20050;-91
2022/03/22 09:48:34;;;;;;;0.70;0.70;;;;;;;16.46;22.48;100630.63;4823366;29;20050;-91
2022/03/22 09:53:51;;;;;;;0.80;0.80;;;;;;;16.58;22.34;100622.34;4822376;29;20086;-89
2022/03/22 09:56:21;;;;;;;0.70;0.70;;;;;;;17.00;21.79;100616.59;4831608;29;20058;-86
2022/03/22 09:58:48;;;;;;;0.70;0.70;;;;;;;17.35;21.43;100618.22;4837069;29;20058;-84
2022/03/22 10:01:15;;;;;;;0.68;0.68;;;;;;;17.76;20.89;100619.63;4839116;29;20065;-87
2022/03/22 10:03:55;;;;;;;0.70;0.70;;;;;;;17.78;20.51;100613.91;4836644;29;20046;-89
2022/03/22 10:06:23;;;;;;;0.70;0.70;;;;;;;17.75;20.49;100611.69;4854069;29;20145;-90
2022/03/22 10:08:51;;;;;;;0.70;0.70;;;;;;;18.04;19.70;100603.34;4881730;29;20052;-91
2022/03/22 10:11:18;;;;;;;0.60;0.60;;;;;;;18.30;19.14;100608.00;4924373;29;20052;-88
2022/03/22 10:13:54;;;;;;;0.70;0.70;;;;;;;18.37;19.21;100607.81;4871017;29;20048;-88
2022/03/22 10:16:21;;;;;;;0.70;0.70;;;;;;;18.61;19.45;100609.16;4910720;29;20072;-87
2022/03/22 10:18:49;;;;;;;0.70;0.70;;;;;;;18.84;18.34;100610.75;4896637;29;20192;-88
2022/03/22 10:21:16;;;;;;;0.60;0.60;;;;;;;18.51;18.25;100617.25;4921669;29;20091;-86
2022/03/22 10:23:54;;;;;;;0.70;0.70;;;;;;;18.12;18.98;100600.16;4928240;29;20059;-87
2022/03/22 10:26:33;;;;;;;0.60;0.60;;;;;;;18.46;18.63;100599.94;4926806;29;20048;-88
2022/03/22 10:29:00;;;;;;;0.60;0.60;;;;;;;18.66;18.20;100602.06;4902343;29;20056;-93
2022/03/22 10:31:35;;;;;;;0.70;0.70;;;;;;;18.95;18.14;100606.19;4927701;29;20058;-89
2022/03/22 10:34:04;;;;;;;0.70;0.70;;;;;;;18.98;17.68;100613.03;4942241;29;20064;-88
2022/03/22 10:37:07;;;;;;;0.60;0.60;;;;;;;19.62;17.65;100596.53;4928245;29;20108;-88
2022/03/22 10:39:39;;;;;;;0.70;0.70;;;;;;;19.76;17.46;100596.06;4935176;29;20043;-87
2022/03/22 10:42:08;;;;;;;0.60;0.60;;;;;;;20.28;17.77;100586.91;4922839;29;20052;-92
2022/03/22 10:44:38;;;;;;;0.60;0.60;;;;;;;20.85;16.66;100591.41;4916039;29;20064;-88
2022/03/22 10:47:08;;;;;;;0.50;0.50;;;;;;;20.44;14.79;100574.06;4942892;29;20049;-85
2022/03/22 10:49:38;;;;;;;0.55;0.55;;;;;;;20.27;15.15;100594.31;4947634;29;20062;-88
2022/03/22 10:52:19;;;;;;;0.60;0.60;;;;;;;20.56;15.27;100588.38;4926836;29;20138;-88
2022/03/22 10:54:46;;;;;;;0.60;0.60;;;;;;;20.76;14.56;100598.53;4902718;29;20132;-93
2022/03/22 10:57:15;;;;;;;0.60;0.60;;;;;;;20.44;14.65;100590.53;4902170;29;20053;-92
2022/03/22 10:59:44;;;;;;;0.50;0.50;;;;;;;20.64;14.32;100590.59;4903803;29;20052;-90
2022/03/22 11:02:18;;;;;;;0.60;0.60;;;;;;;20.01;14.40;100584.38;4911404;29;20067;-90
2022/03/22 11:04:45;;;;;;;0.60;0.60;;;;;;;20.18;14.03;100576.78;4902690;29;20075;-92
2022/03/22 11:07:15;;;;;;;0.60;0.60;;;;;;;20.27;13.85;100586.09;4914768;29;20092;-92
2022/03/22 11:09:47;;;;;;;0.60;0.60;;;;;;;20.62;14.26;100576.31;4921022;29;20055;-90
2022/03/22 11:12:15;;;;;;;0.60;0.60;;;;;;;21.20;13.65;100565.84;4912191;29;20056;-90
2022/03/22 11:14:42;;;;;;;0.60;0.60;;;;;;;20.73;13.64;100571.66;4921616;29;20099;-90
2022/03/22 11:17:10;;;;;;;0.60;0.60;;;;;;;21.07;13.53;100569.19;4912541;29;20115;-88
2022/03/22 11:19:38;;;;;;;0.63;0.63;;;;;;;21.02;13.24;100574.69;4900131;29;20083;-87
2022/03/22 11:22:06;;;;;;;0.60;0.60;;;;;;;21.46;13.41;100574.06;4917081;29;20090;-87
2022/03/22 11:24:36;;;;;;;0.70;0.70;;;;;;;21.84;12.73;100560.75;4909873;29;20052;-87
2022/03/22 11:27:06;;;;;;;0.60;0.60;;;;;;;21.91;13.74;100555.78;4911442;29;20048;-88
2022/03/22 11:29:33;;;;;;;0.70;0.70;;;;;;;22.34;12.62;100556.09;4906005;29;20040;-88
2022/03/22 11:34:50;;;;;;;0.60;0.60;;;;;;;21.66;13.11;100556.69;4914263;29;20976;-87
2022/03/22 11:37:33;;;;;;;0.60;0.60;;;;;;;21.60;13.04;100552.34;4894235;29;20080;-89
2022/03/22 11:42:54;;;;;;;0.60;0.60;;;;;;;22.19;12.75;100557.00;4905549;29;20060;-86
2022/03/22 11:45:21;;;;;;;0.60;0.60;;;;;;;22.42;12.91;100555.47;4920120;29;20090;-87
2022/03/22 11:47:53;;;;;;;0.60;0.60;;;;;;;22.83;13.09;100546.09;4921140;29;20086;-87
2022/03/22 11:50:22;;;;;;;0.63;0.63;;;;;;;22.43;12.69;100548.06;4902527;29;20052;-89
2022/03/22 11:53:00;;;;;;;0.60;0.60;;;;;;;21.50;13.13;100547.69;4914718;29;20508;-88
2022/03/22 11:55:29;;;;;;;0.60;0.60;;;;;;;21.22;13.51;100538.13;4915452;29;20063;-89
2022/03/22 11:58:03;;;;;;;0.60;0.60;;;;;;;20.99;13.77;100550.53;4911158;29;20115;-89
2022/03/22 12:00:42;;;;;;;0.60;0.60;;;;;;;20.84;13.78;100539.53;4901345;29;20150;-88
2022/03/22 12:03:14;;;;;;;0.60;0.60;;;;;;;21.00;13.81;100544.75;4904894;29;20051;-88
2022/03/22 12:05:43;;;;;;;0.70;0.70;;;;;;;21.09;13.53;100553.25;4900349;29;20408;-88
2022/03/22 12:08:14;;;;;;;0.60;0.60;;;;;;;21.34;13.90;100544.13;4916508;29;20074;-89
2022/03/22 12:10:47;;;;;;;0.60;0.60;;;;;;;21.67;13.61;100538.28;4891074;29;20446;-88
2022/03/22 12:13:18;;;;;;;0.60;0.60;;;;;;;21.37;13.48;100532.59;4909031;29;20055;-88
2022/03/22 12:15:58;;;;;;;0.60;0.60;;;;;;;21.47;14.01;100545.50;4884499;29;20104;-90